Česky Dansk Deutsch English Español Suomi Français Magyar Italiano Nederlands norsk Polski Português svenska Türkçe

 

Weather

Sharurah (Saudi Arabia)

02:00, 20 August 2016 (GMT)

NWNNE
WE
SWSSE
Home            
Sharurah Sayun Al-Hazm Najran Marib Ataq Sa'Ada / Sadah Sana'A Wadi Al Dawasser Airport Riyan Khamis Mushait Abha Gizan Taiz Hodeidah Bisha Mokha Aden Mokha Al Baha Assab Thumrait Salalah

To put a weather button on your web site or blog, copy the code below and paste it into your page . The first box contains HTML code, the second UBB code.


Add to Google

Details

Wind speed:2 bf, 5 kn, 2.6 m/s, 5.8 miles/h, 9.3 km/h
Wind direction:WSW, 240°
Visibility:Greater than 10000 m, 10 km, 32800 ft, 6.2 miles
Clouds:CAVOC
Temperature:29°C, 84°F
Feels like:27°C, 81°F
Dew-point:-1°C, 30°F
Atmospheric pressure:1006 hPa, 754.6 mmHg, 29.71 inHg, 0.993 atm
Relative humidity:14.2 %
METAR:OESH 200200Z 24005KT CAVOK 29/M01 Q1006 NOSIG

Shortcuts

An up-to-date overview of weather conditions all over the world. Add locations with the plus (+) sign. These shortcuts can be added to Google.

Lid van de Technetium groep

website free tracking
StatCounter NetStat W3C Validator

17-04-2021 10:43:21
astro.technetium.be money.technetium.be phote.technetium.be tafeltennistafel.technetium.be www.ligfiets.net